Time;durP1;ratioP1;P1;durP2;ratioP2;P2;SDS_P1;SDS_P2;PMS_P1;PMS_P2;Temp;Humidity;BMP_temperature;BMP_pressure;BME280_temperature;BME280_humidity;BME280_pressure;Samples;Min_cycle;Max_cycle;Signal;HPM_P1;HPM_P2
2021/12/29 00:00:59;;;;;;;83.40;35.90;;;;;;;-3.97;78.94;97416.05;105342;1320;22590;-74
2021/12/29 00:03:26;;;;;;;97.00;42.80;;;;;;;-3.94;78.92;97418.18;105363;1320;22721;-73
2021/12/29 00:05:53;;;;;;;89.70;40.10;;;;;;;-3.92;79.21;97423.40;105312;1320;22821;-74
2021/12/29 00:08:20;;;;;;;89.70;38.50;;;;;;;-3.89;79.75;97424.88;105310;1322;22585;-74
2021/12/29 00:10:54;;;;;;;90.70;39.20;;;;;;;-3.87;79.99;97431.80;105373;1321;22596;-75
2021/12/29 00:13:23;;;;;;;93.60;40.70;;;;;;;-3.87;80.09;97429.08;105386;1321;22586;-74
2021/12/29 00:15:57;;;;;;;83.00;37.70;;;;;;;-3.88;79.76;97430.10;105341;1321;22599;-74
2021/12/29 00:18:25;;;;;;;91.70;40.40;;;;;;;-3.90;79.53;97427.45;105338;1314;22675;-75
2021/12/29 00:20:53;;;;;;;84.90;40.40;;;;;;;-3.92;79.57;97425.78;105383;1321;25285;-74
2021/12/29 00:23:20;;;;;;;91.50;42.90;;;;;;;-3.92;79.47;97422.38;105374;1319;23076;-74
2021/12/29 00:25:47;;;;;;;97.20;43.40;;;;;;;-3.93;79.26;97422.58;105394;1320;22598;-74
2021/12/29 00:28:15;;;;;;;107.20;44.60;;;;;;;-3.94;79.02;97420.06;105410;1321;22712;-74
2021/12/29 00:30:43;;;;;;;103.80;41.70;;;;;;;-3.90;79.16;97417.90;105505;1320;22723;-74
2021/12/29 00:33:11;;;;;;;83.60;38.80;;;;;;;-3.87;79.30;97416.13;105441;1319;22596;-74
2021/12/29 00:35:41;;;;;;;86.10;38.30;;;;;;;-3.83;79.73;97413.46;105786;1321;22629;-74
2021/12/29 00:38:10;;;;;;;73.60;36.70;;;;;;;-3.81;80.01;97411.05;105397;1321;25332;-75
2021/12/29 00:40:38;;;;;;;92.80;37.70;;;;;;;-3.79;80.31;97409.64;105848;1320;24151;-74
2021/12/29 00:43:07;;;;;;;89.10;40.10;;;;;;;-3.78;80.20;97407.38;105435;1317;24324;-76
2021/12/29 00:45:36;;;;;;;68.70;30.50;;;;;;;-3.76;79.63;97406.47;105372;1320;25404;-74
2021/12/29 00:48:05;;;;;;;91.10;39.60;;;;;;;-3.75;79.56;97405.23;105947;1320;25285;-76
2021/12/29 00:50:33;;;;;;;95.50;38.80;;;;;;;-3.75;79.66;97408.12;105465;1317;25390;-75
2021/12/29 00:53:00;;;;;;;96.50;44.30;;;;;;;-3.72;79.40;97408.92;105334;1320;23078;-74
2021/12/29 00:55:28;;;;;;;102.00;46.10;;;;;;;-3.65;79.63;97408.38;105328;1321;22661;-74
2021/12/29 00:57:55;;;;;;;96.20;43.10;;;;;;;-3.60;79.69;97410.79;105449;1321;22653;-75
2021/12/29 01:00:24;;;;;;;90.90;41.80;;;;;;;-3.55;79.75;97414.90;105403;1321;22610;-75
2021/12/29 01:02:52;;;;;;;86.50;37.50;;;;;;;-3.54;80.31;97411.64;105422;1321;25629;-75
2021/12/29 01:05:20;;;;;;;92.30;40.10;;;;;;;-3.53;80.03;97413.98;105380;1321;24486;-74
2021/12/29 01:07:49;;;;;;;107.50;48.10;;;;;;;-3.53;79.81;97412.11;105434;1320;23057;-74
2021/12/29 01:10:18;;;;;;;103.40;45.80;;;;;;;-3.51;79.84;97413.25;105413;1321;22603;-73
2021/12/29 01:12:52;;;;;;;89.60;40.70;;;;;;;-3.48;79.63;97413.50;105425;1320;22615;-74
2021/12/29 01:15:27;;;;;;;104.60;45.30;;;;;;;-3.48;79.38;97413.33;105391;1321;22593;-74
2021/12/29 01:17:56;;;;;;;103.50;46.30;;;;;;;-3.48;79.25;97413.48;105356;1321;22597;-76
2021/12/29 01:20:24;;;;;;;125.40;55.50;;;;;;;-3.46;79.45;97413.95;105544;1317;22640;-74
2021/12/29 01:22:51;;;;;;;121.10;52.30;;;;;;;-3.40;79.28;97411.39;105407;1322;22595;-75
2021/12/29 01:25:21;;;;;;;113.10;50.70;;;;;;;-3.36;79.51;97414.17;105693;1321;22620;-75
2021/12/29 01:27:48;;;;;;;104.10;45.20;;;;;;;-3.31;80.02;97412.33;105368;1321;22790;-75
2021/12/29 01:30:16;;;;;;;112.90;48.10;;;;;;;-3.29;80.45;97411.92;105390;1320;25200;-74
2021/12/29 01:32:43;;;;;;;114.40;49.90;;;;;;;-3.28;80.22;97414.45;105409;1321;22596;-74
2021/12/29 01:35:12;;;;;;;117.60;49.90;;;;;;;-3.28;80.35;97416.48;105399;1321;22726;-75
2021/12/29 01:37:40;;;;;;;92.00;40.70;;;;;;;-3.26;79.92;97417.98;105421;1320;26176;-75
2021/12/29 01:40:12;;;;;;;107.70;46.70;;;;;;;-3.25;79.75;97415.41;105438;1321;22731;-74
2021/12/29 01:42:39;;;;;;;94.80;42.80;;;;;;;-3.26;79.37;97413.04;105414;1314;22603;-76
2021/12/29 01:45:08;;;;;;;93.80;38.90;;;;;;;-3.27;79.56;97411.02;105391;1321;22625;-75
2021/12/29 01:47:35;;;;;;;117.60;50.80;;;;;;;-3.27;79.61;97411.53;105413;1319;22588;-75
2021/12/29 01:50:04;;;;;;;105.00;47.80;;;;;;;-3.23;79.53;97405.13;105393;1320;23181;-74
2021/12/29 01:52:37;;;;;;;101.60;43.90;;;;;;;-3.19;79.89;97405.66;105392;1320;22593;-74
2021/12/29 01:55:11;;;;;;;107.30;47.40;;;;;;;-3.14;80.24;97401.80;105371;1321;22726;-74
2021/12/29 01:57:39;;;;;;;97.30;44.20;;;;;;;-3.13;80.49;97396.27;105360;1320;25154;-75
2021/12/29 02:00:14;;;;;;;114.90;47.90;;;;;;;-3.10;80.67;97399.77;105378;1321;22582;-75
2021/12/29 02:02:42;;;;;;;102.80;45.70;;;;;;;-3.09;80.39;97393.27;105421;1321;23137;-75
2021/12/29 02:05:09;;;;;;;103.70;43.90;;;;;;;-3.08;80.20;97392.05;105334;1321;22593;-75
2021/12/29 02:07:37;;;;;;;91.10;39.20;;;;;;;-3.07;80.28;97390.85;105358;1321;24136;-75
2021/12/29 02:10:06;;;;;;;106.70;45.40;;;;;;;-3.07;80.20;97387.42;105386;1320;22651;-75
2021/12/29 02:12:39;;;;;;;113.20;50.20;;;;;;;-3.06;80.02;97385.69;105354;1321;22582;-75
2021/12/29 02:15:06;;;;;;;116.10;52.80;;;;;;;-3.02;80.12;97386.05;105392;1321;22646;-75
2021/12/29 02:17:34;;;;;;;111.80;49.30;;;;;;;-2.96;80.33;97391.70;105417;1319;22719;-75
2021/12/29 02:20:06;;;;;;;90.50;39.80;;;;;;;-2.93;80.64;97396.02;105370;1321;22637;-75
2021/12/29 02:22:43;;;;;;;96.20;42.20;;;;;;;-2.92;81.03;97395.31;105374;1321;22653;-74
2021/12/29 02:27:53;;;;;;;95.40;41.60;;;;;;;-2.93;80.72;97396.03;105356;1320;24430;-76
2021/12/29 02:30:23;;;;;;;92.20;41.90;;;;;;;-2.94;80.58;97397.23;105338;1320;22649;-75
2021/12/29 02:32:54;;;;;;;114.50;49.30;;;;;;;-2.92;80.57;97402.48;105362;1320;26405;-75
2021/12/29 02:35:22;;;;;;;108.10;47.80;;;;;;;-2.86;80.46;97405.52;105451;1322;22802;-75
2021/12/29 02:37:49;;;;;;;105.70;45.60;;;;;;;-2.81;80.84;97402.64;105414;1321;22597;-75
2021/12/29 02:40:16;;;;;;;96.10;43.20;;;;;;;-2.79;81.20;97396.79;105348;1321;25547;-75
2021/12/29 02:42:43;;;;;;;98.80;42.50;;;;;;;-2.81;81.17;97401.27;105727;1321;22593;-75
2021/12/29 02:45:15;;;;;;;87.20;38.90;;;;;;;-2.81;81.10;97407.57;105397;1322;25336;-76
2021/12/29 02:47:42;;;;;;;87.80;41.10;;;;;;;-2.81;81.07;97403.83;105358;1322;23201;-74
2021/12/29 02:50:14;;;;;;;95.40;39.30;;;;;;;-2.81;80.86;97403.14;105403;1320;22685;-75
2021/12/29 02:52:43;;;;;;;94.20;44.60;;;;;;;-2.80;80.95;97394.93;105398;1322;25377;-76
2021/12/29 02:55:10;;;;;;;95.50;43.50;;;;;;;-2.75;80.90;97395.09;105373;1321;22575;-75
2021/12/29 02:57:37;;;;;;;90.00;41.20;;;;;;;-2.72;81.03;97395.02;105393;1317;25429;-77
2021/12/29 03:00:06;;;;;;;88.70;39.40;;;;;;;-2.69;81.36;97392.71;105345;1322;22616;-75
2021/12/29 03:02:33;;;;;;;84.40;40.70;;;;;;;-2.69;81.58;97394.40;105430;1321;22585;-76
2021/12/29 03:05:00;;;;;;;87.60;39.10;;;;;;;-2.70;81.38;97390.17;105376;1321;25435;-76
2021/12/29 03:07:27;;;;;;;84.10;39.10;;;;;;;-2.70;81.42;97388.65;105376;1319;25838;-75
2021/12/29 03:09:54;;;;;;;89.70;40.20;;;;;;;-2.71;80.98;97393.80;105370;1321;22659;-74
2021/12/29 03:12:22;;;;;;;94.00;43.40;;;;;;;-2.71;80.98;97389.36;105349;1320;24541;-73
2021/12/29 03:14:51;;;;;;;96.40;44.50;;;;;;;-2.67;80.92;97389.73;105405;1321;22603;-75
2021/12/29 03:17:18;;;;;;;90.90;45.20;;;;;;;-2.65;81.11;97392.40;105383;1320;22585;-73
2021/12/29 03:19:46;;;;;;;85.50;40.60;;;;;;;-2.60;81.46;97390.91;105480;1322;24490;-75
2021/12/29 03:22:13;;;;;;;91.60;41.80;;;;;;;-2.61;81.62;97389.91;105367;1320;22662;-74
2021/12/29 03:24:41;;;;;;;91.50;41.60;;;;;;;-2.61;81.52;97388.73;105379;1321;22582;-76
2021/12/29 03:27:08;;;;;;;87.30;41.70;;;;;;;-2.62;81.28;97385.84;105365;1319;22640;-76
2021/12/29 03:29:35;;;;;;;86.40;39.70;;;;;;;-2.63;81.27;97390.13;105343;1320;22605;-74
2021/12/29 03:32:07;;;;;;;80.20;36.90;;;;;;;-2.63;81.25;97392.86;105383;1321;22616;-74
2021/12/29 03:34:34;;;;;;;94.00;42.30;;;;;;;-2.62;81.14;97395.23;105378;1320;25278;-74
2021/12/29 03:37:01;;;;;;;102.20;45.20;;;;;;;-2.57;81.02;97399.80;105380;1320;22649;-75
2021/12/29 03:39:29;;;;;;;89.50;43.00;;;;;;;-2.52;81.31;97401.36;105432;1317;22598;-76
2021/12/29 03:41:56;;;;;;;85.20;39.90;;;;;;;-2.48;81.49;97401.23;105371;1320;24662;-74
2021/12/29 03:44:23;;;;;;;95.70;42.20;;;;;;;-2.49;81.98;97402.77;105363;1322;25357;-76
2021/12/29 03:46:50;;;;;;;96.50;40.20;;;;;;;-2.49;81.89;97404.14;105376;1321;24087;-74
2021/12/29 03:49:17;;;;;;;86.60;40.30;;;;;;;-2.46;81.84;97405.77;105382;1313;22716;-74
2021/12/29 03:51:44;;;;;;;91.70;42.20;;;;;;;-2.46;81.69;97407.30;105385;1317;22607;-74
2021/12/29 03:54:11;;;;;;;90.70;43.80;;;;;;;-2.45;81.59;97414.77;105380;1321;22577;-74
2021/12/29 03:56:37;;;;;;;96.50;45.50;;;;;;;-2.39;81.48;97421.71;105388;1321;23118;-73
2021/12/29 03:59:04;;;;;;;86.00;40.90;;;;;;;-2.31;81.43;97423.69;105417;1313;22590;-75
2021/12/29 04:01:31;;;;;;;83.50;38.30;;;;;;;-2.27;81.86;97422.34;105402;1320;24064;-75
2021/12/29 04:03:58;;;;;;;83.30;38.90;;;;;;;-2.27;82.25;97425.06;105450;1320;22565;-74
2021/12/29 04:06:25;;;;;;;83.20;36.70;;;;;;;-2.27;82.15;97426.45;105326;1322;22655;-75
2021/12/29 04:08:52;;;;;;;78.30;37.00;;;;;;;-2.30;81.86;97426.20;105386;1320;24375;-74
2021/12/29 04:11:20;;;;;;;79.70;38.70;;;;;;;-2.34;81.69;97431.13;105410;1321;22585;-74
2021/12/29 04:13:47;;;;;;;93.90;42.00;;;;;;;-2.36;81.66;97431.36;105433;1321;25377;-75
2021/12/29 04:16:17;;;;;;;93.00;42.40;;;;;;;-2.34;81.70;97430.45;105463;1320;22615;-75
2021/12/29 04:19:06;;;;;;;84.10;39.40;;;;;;;-2.33;81.85;97432.61;105407;1320;22579;-75
2021/12/29 04:21:37;;;;;;;81.20;39.30;;;;;;;-2.34;82.31;97433.83;105402;1321;22606;-77
2021/12/29 04:24:05;;;;;;;82.80;39.50;;;;;;;-2.37;82.47;97430.55;105418;1321;22601;-76
2021/12/29 04:26:36;;;;;;;83.70;39.40;;;;;;;-2.40;82.24;97429.92;105371;1321;22591;-75
2021/12/29 04:29:08;;;;;;;91.80;41.60;;;;;;;-2.42;82.08;97428.29;105401;1313;22625;-78
2021/12/29 04:31:35;;;;;;;86.40;39.80;;;;;;;-2.43;81.94;97428.86;105401;1322;22581;-75
2021/12/29 04:34:02;;;;;;;143.30;67.40;;;;;;;-2.46;81.62;97430.48;105400;1321;22516;-76
2021/12/29 04:36:30;;;;;;;157.70;76.10;;;;;;;-2.48;81.59;97433.27;105360;1320;22588;-75
2021/12/29 04:38:58;;;;;;;106.00;49.80;;;;;;;-2.46;81.72;97437.82;105409;1321;22582;-79
2021/12/29 04:41:25;;;;;;;102.60;49.70;;;;;;;-2.45;81.91;97434.39;105442;1320;22589;-75
2021/12/29 04:43:52;;;;;;;101.40;45.80;;;;;;;-2.43;82.28;97433.45;105449;1313;23988;-76
2021/12/29 04:46:27;;;;;;;107.90;49.10;;;;;;;-2.44;82.62;97433.65;105391;1313;22600;-77
2021/12/29 04:49:00;;;;;;;98.90;45.60;;;;;;;-2.46;82.39;97436.97;105367;1320;22624;-76
2021/12/29 04:51:34;;;;;;;;;;;;;;;-2.47;82.19;97431.88;105427;1321;22601;-76
2021/12/29 04:54:05;;;;;;;98.30;42.80;;;;;;;-2.52;82.08;97432.90;105419;1320;22642;-76
2021/12/29 04:56:32;;;;;;;110.30;46.90;;;;;;;-2.55;81.91;97430.10;105152;1321;273022;-76
2021/12/29 04:58:59;;;;;;;117.10;51.00;;;;;;;-2.56;81.81;97426.55;105423;1320;22714;-75
2021/12/29 05:01:27;;;;;;;106.50;51.20;;;;;;;-2.51;81.81;97429.63;105434;1319;22588;-76
2021/12/29 05:03:54;;;;;;;108.20;50.10;;;;;;;-2.49;82.00;97431.41;105403;1321;23127;-76
2021/12/29 05:09:07;;;;;;;100.40;46.30;;;;;;;-2.47;82.36;97439.38;105406;1313;22575;-76
2021/12/29 05:11:34;;;;;;;97.90;46.50;;;;;;;-2.47;82.54;97445.86;105395;1321;22717;-77
2021/12/29 05:14:01;;;;;;;94.70;42.10;;;;;;;-2.47;82.17;97446.54;105388;1320;22585;-76
2021/12/29 05:16:29;;;;;;;129.20;59.40;;;;;;;-2.46;82.00;97445.33;105555;1322;22614;-76
2021/12/29 05:18:57;;;;;;;127.30;61.90;;;;;;;-2.47;81.82;97448.23;105421;1319;22646;-75
2021/12/29 05:21:25;;;;;;;116.30;53.90;;;;;;;-2.43;81.74;97451.17;105873;1321;23114;-76
2021/12/29 05:23:54;;;;;;;117.10;63.20;;;;;;;-2.38;82.28;97452.72;105406;1321;22713;-74
2021/12/29 05:26:22;;;;;;;94.90;47.40;;;;;;;-2.36;82.51;97457.44;105451;1320;22592;-74
2021/12/29 05:28:49;;;;;;;109.00;51.40;;;;;;;-2.36;82.88;97463.39;105531;1322;22589;-75
2021/12/29 05:31:16;;;;;;;113.90;51.30;;;;;;;-2.37;82.81;97465.82;105415;1317;22591;-75
2021/12/29 05:33:43;;;;;;;108.80;48.80;;;;;;;-2.37;82.45;97465.48;105465;1321;22645;-76
2021/12/29 05:36:10;;;;;;;101.20;49.40;;;;;;;-2.37;82.23;97465.32;105430;1321;22672;-74
2021/12/29 05:38:37;;;;;;;124.20;57.00;;;;;;;-2.37;82.19;97467.52;105372;1319;22588;-75
2021/12/29 05:41:04;;;;;;;118.30;58.90;;;;;;;-2.34;82.16;97467.27;105403;1322;22638;-74
2021/12/29 05:43:31;;;;;;;112.30;58.10;;;;;;;-2.30;82.27;97464.56;105411;1320;22596;-74
2021/12/29 05:45:58;;;;;;;108.00;50.20;;;;;;;-2.27;82.57;97463.64;105430;1321;22617;-74
2021/12/29 05:48:25;;;;;;;111.40;52.90;;;;;;;-2.26;82.98;97462.75;105417;1322;22711;-74
2021/12/29 05:50:51;;;;;;;110.30;51.40;;;;;;;-2.27;82.79;97463.98;105421;1320;22762;-76
2021/12/29 05:53:18;;;;;;;110.50;51.00;;;;;;;-2.29;82.63;97461.80;105410;1320;24376;-74
2021/12/29 05:55:45;;;;;;;111.10;53.10;;;;;;;-2.31;82.86;97463.23;105432;1321;22694;-75
2021/12/29 05:58:12;;;;;;;136.60;63.40;;;;;;;-2.30;82.42;97466.11;105415;1320;22583;-74
2021/12/29 06:00:41;;;;;;;173.20;80.80;;;;;;;-2.26;82.31;97462.39;105417;1321;22745;-74
2021/12/29 06:03:08;;;;;;;141.90;64.90;;;;;;;-2.20;82.51;97465.96;105436;1322;25230;-75
2021/12/29 06:05:36;;;;;;;131.70;64.40;;;;;;;-2.17;82.67;97468.94;105550;1322;22585;-73
2021/12/29 06:08:04;;;;;;;144.30;72.00;;;;;;;-2.17;82.92;97469.95;105669;1322;22907;-75
2021/12/29 06:10:31;;;;;;;138.90;65.70;;;;;;;-2.14;83.02;97473.59;105643;1319;22576;-75
2021/12/29 06:12:58;;;;;;;130.90;64.70;;;;;;;-2.12;82.80;97478.99;105674;1320;25310;-76
2021/12/29 06:15:26;;;;;;;128.30;61.10;;;;;;;-2.11;82.64;97482.88;105655;1319;22614;-76
2021/12/29 06:17:53;;;;;;;137.90;65.40;;;;;;;-2.09;82.59;97481.63;105708;1321;22584;-77
2021/12/29 06:20:20;;;;;;;136.90;68.00;;;;;;;-2.02;82.54;97487.35;105672;1321;22570;-75
2021/12/29 06:22:47;;;;;;;126.50;65.10;;;;;;;-1.97;82.40;97489.40;105685;1321;22683;-75
2021/12/29 06:25:16;;;;;;;136.50;65.70;;;;;;;-1.92;82.81;97491.64;105660;1321;22570;-74
2021/12/29 06:27:43;;;;;;;137.80;64.10;;;;;;;-1.92;82.99;97496.92;105691;1317;22593;-76
2021/12/29 06:30:13;;;;;;;129.40;60.50;;;;;;;-1.91;82.92;97504.21;105736;1322;22571;-76
2021/12/29 06:32:41;;;;;;;133.70;62.10;;;;;;;-1.88;82.91;97506.70;105616;1322;22597;-75
2021/12/29 06:35:10;;;;;;;136.10;61.60;;;;;;;-1.86;82.84;97511.89;105598;1320;22683;-74
2021/12/29 06:37:37;;;;;;;147.80;68.60;;;;;;;-1.82;82.74;97509.91;105692;1321;22672;-74
2021/12/29 06:40:05;;;;;;;154.40;73.00;;;;;;;-1.74;82.61;97510.15;105702;1321;24813;-74
2021/12/29 06:42:33;;;;;;;140.90;67.40;;;;;;;-1.69;82.66;97511.31;105736;1322;24225;-75
2021/12/29 06:44:59;;;;;;;134.10;65.30;;;;;;;-1.64;83.01;97508.77;105710;1317;22609;-75
2021/12/29 06:47:27;;;;;;;138.50;65.30;;;;;;;-1.62;83.07;97511.96;105688;1319;22585;-74
2021/12/29 06:49:54;;;;;;;125.90;60.40;;;;;;;-1.59;83.31;97514.58;105696;1321;22592;-75
2021/12/29 06:52:22;;;;;;;114.80;55.90;;;;;;;-1.57;83.09;97521.00;105703;1321;23129;-75
2021/12/29 06:54:49;;;;;;;106.30;51.50;;;;;;;-1.56;83.10;97528.96;105707;1322;22595;-74
2021/12/29 06:57:16;;;;;;;126.80;59.70;;;;;;;-1.53;82.94;97530.06;105669;1322;22588;-75
2021/12/29 06:59:43;;;;;;;123.20;61.30;;;;;;;-1.46;82.75;97525.92;105692;1322;22589;-75
2021/12/29 07:02:11;;;;;;;119.80;57.30;;;;;;;-1.42;82.84;97528.83;105690;1320;22683;-74
2021/12/29 07:04:38;;;;;;;101.80;48.50;;;;;;;-1.38;83.26;97525.80;105649;1321;22585;-78
2021/12/29 07:07:05;;;;;;;101.90;49.00;;;;;;;-1.37;83.73;97532.59;105407;1321;22605;-74
2021/12/29 07:09:32;;;;;;;93.20;45.60;;;;;;;-1.36;83.76;97538.36;105407;1320;22585;-75
2021/12/29 07:11:59;;;;;;;91.70;46.40;;;;;;;-1.33;83.57;97539.98;105462;1320;25284;-74
2021/12/29 07:14:26;;;;;;;107.00;51.20;;;;;;;-1.29;83.52;97548.19;105344;1322;22594;-75
2021/12/29 07:16:53;;;;;;;123.20;58.50;;;;;;;-1.21;83.48;97549.95;105425;1321;22662;-74
2021/12/29 07:19:20;;;;;;;118.10;54.40;;;;;;;-1.16;83.56;97548.58;105449;1321;22727;-74
2021/12/29 07:21:49;;;;;;;104.80;47.40;;;;;;;-1.10;83.61;97543.96;105483;1321;22645;-73
2021/12/29 07:24:16;;;;;;;130.20;59.90;;;;;;;-1.08;83.82;97548.33;105500;1321;22609;-74
2021/12/29 07:26:44;;;;;;;133.80;61.10;;;;;;;-1.06;83.88;97553.51;105424;1321;22652;-74
2021/12/29 07:29:11;;;;;;;127.90;53.80;;;;;;;-1.03;83.84;97558.21;105427;1321;22699;-73
2021/12/29 07:31:38;;;;;;;127.50;62.00;;;;;;;-1.02;83.71;97559.70;105415;1321;22607;-75
2021/12/29 07:34:07;;;;;;;139.70;64.50;;;;;;;-0.98;83.62;97564.54;105471;1321;22566;-73
2021/12/29 07:36:35;;;;;;;138.30;67.20;;;;;;;-0.90;83.52;97572.08;105484;1321;22722;-76
2021/12/29 07:39:04;;;;;;;122.40;64.80;;;;;;;-0.83;83.46;97573.73;105737;1321;23149;-78
2021/12/29 07:41:31;;;;;;;127.80;60.40;;;;;;;-0.78;83.98;97576.92;105449;1321;24443;-79
2021/12/29 07:43:59;;;;;;;136.40;61.30;;;;;;;-0.77;84.18;97574.52;105422;1321;22699;-73
2021/12/29 07:46:31;;;;;;;125.60;58.50;;;;;;;-0.74;84.18;97578.36;105406;1320;22582;-77
2021/12/29 07:49:03;;;;;;;119.30;55.60;;;;;;;-0.73;84.30;97579.85;105426;1320;22603;-80
2021/12/29 07:51:30;;;;;;;135.10;61.50;;;;;;;-0.69;84.00;97582.42;105461;1321;22582;-74
2021/12/29 07:53:59;;;;;;;130.40;67.20;;;;;;;-0.61;83.95;97586.92;105434;1321;22607;-73
2021/12/29 07:56:27;;;;;;;119.60;58.00;;;;;;;-0.55;83.93;97590.96;105464;1322;25233;-75
2021/12/29 07:58:54;;;;;;;112.30;52.40;;;;;;;-0.51;84.09;97594.40;105498;1321;24244;-78
2021/12/29 08:01:23;;;;;;;117.70;53.30;;;;;;;-0.48;84.34;97597.55;105478;1319;22557;-76
2021/12/29 08:03:51;;;;;;;116.80;55.40;;;;;;;-0.44;84.26;97602.17;105459;1321;22648;-77
2021/12/29 08:06:19;;;;;;;110.90;53.30;;;;;;;-0.44;84.31;97603.17;105456;1322;22593;-74
2021/12/29 08:08:46;;;;;;;129.20;58.80;;;;;;;-0.42;84.21;97607.05;105460;1320;22577;-79
2021/12/29 08:11:13;;;;;;;139.10;65.40;;;;;;;-0.38;84.17;97610.68;105472;1320;24785;-79
2021/12/29 08:13:40;;;;;;;140.50;67.00;;;;;;;-0.31;83.82;97609.91;105441;1319;22631;-76
2021/12/29 08:16:07;;;;;;;133.10;63.40;;;;;;;-0.25;83.82;97607.12;105416;1321;24472;-80
2021/12/29 08:18:34;;;;;;;160.70;79.50;;;;;;;-0.21;84.03;97605.94;105383;1321;25547;-76
2021/12/29 08:21:01;;;;;;;188.80;94.00;;;;;;;-0.18;84.29;97610.40;105456;1320;23111;-74
2021/12/29 08:23:28;;;;;;;193.10;94.80;;;;;;;-0.15;84.16;97610.30;105482;1321;26327;-75
2021/12/29 08:25:55;;;;;;;177.30;85.10;;;;;;;-0.14;84.05;97611.48;105433;1319;22588;-74
2021/12/29 08:28:22;;;;;;;170.40;84.80;;;;;;;-0.13;83.95;97610.05;105398;1321;23266;-74
2021/12/29 08:30:52;;;;;;;174.00;82.20;;;;;;;-0.11;84.07;97613.23;105440;1321;22648;-74
2021/12/29 08:33:19;;;;;;;149.60;80.80;;;;;;;-0.04;83.71;97608.67;105445;1320;22569;-76
2021/12/29 08:35:46;;;;;;;155.00;78.10;;;;;;;0.03;83.75;97606.20;105380;1322;22700;-76
2021/12/29 08:38:15;;;;;;;136.60;71.90;;;;;;;0.08;83.90;97604.97;105443;1321;25069;-75
2021/12/29 08:40:42;;;;;;;144.60;72.50;;;;;;;0.12;84.00;97608.40;105443;1321;24478;-75
2021/12/29 08:43:09;;;;;;;156.00;82.20;;;;;;;0.16;84.04;97612.71;105414;1319;23410;-76
2021/12/29 08:45:37;;;;;;;179.10;85.80;;;;;;;0.19;83.89;97617.38;105451;1321;22644;-75
2021/12/29 08:48:05;;;;;;;206.70;96.40;;;;;;;0.23;84.00;97617.56;105428;1320;23508;-75
2021/12/29 08:50:32;;;;;;;230.80;99.50;;;;;;;0.28;83.91;97615.78;105445;1317;22591;-74
2021/12/29 08:53:02;;;;;;;202.30;93.90;;;;;;;0.36;83.60;97615.66;105387;1321;24391;-76
2021/12/29 08:55:31;;;;;;;208.90;95.20;;;;;;;0.41;83.68;97617.00;105417;1321;22611;-75
2021/12/29 08:57:58;;;;;;;193.10;99.00;;;;;;;0.42;83.93;97619.54;105418;1320;22603;-78
2021/12/29 09:00:26;;;;;;;218.40;104.10;;;;;;;0.41;84.00;97625.57;105446;1321;22585;-77
2021/12/29 09:02:53;;;;;;;184.50;94.80;;;;;;;0.42;83.94;97632.56;105446;1320;22763;-78
2021/12/29 09:05:21;;;;;;;167.20;87.70;;;;;;;0.42;83.86;97643.02;105457;1321;24264;-75
2021/12/29 09:07:48;;;;;;;151.60;78.90;;;;;;;0.42;83.82;97645.91;105467;1320;22639;-74
2021/12/29 09:10:19;;;;;;;146.30;68.00;;;;;;;0.44;83.60;97649.96;105395;1321;24628;-77
2021/12/29 09:12:51;;;;;;;139.20;68.20;;;;;;;0.49;83.49;97651.12;105450;1321;22635;-76
2021/12/29 09:15:20;;;;;;;131.80;64.50;;;;;;;0.52;83.44;97649.44;105355;1321;22623;-76
2021/12/29 09:17:47;;;;;;;106.40;50.40;;;;;;;0.56;83.64;97647.36;105468;1322;22570;-76
2021/12/29 09:20:16;;;;;;;108.10;52.80;;;;;;;0.56;83.91;97650.63;105448;1321;22588;-75
2021/12/29 09:22:43;;;;;;;111.60;53.90;;;;;;;0.57;83.82;97650.08;105416;1321;25307;-78
2021/12/29 09:25:10;;;;;;;109.00;51.70;;;;;;;0.57;83.62;97649.76;105455;1321;22585;-78
2021/12/29 09:27:37;;;;;;;124.90;62.10;;;;;;;0.55;83.59;97648.81;105444;1320;22745;-75
2021/12/29 09:30:05;;;;;;;148.60;73.50;;;;;;;0.55;83.48;97647.92;105360;1321;22713;-75
2021/12/29 09:32:32;;;;;;;198.90;107.50;;;;;;;0.60;83.37;97652.20;105425;1321;22582;-75
2021/12/29 09:35:00;;;;;;;168.70;88.70;;;;;;;0.63;83.34;97649.48;105441;1321;22600;-75
2021/12/29 09:37:30;;;;;;;140.10;73.10;;;;;;;0.68;83.48;97642.96;105436;1320;22578;-75
2021/12/29 09:39:57;;;;;;;137.20;70.30;;;;;;;0.67;83.70;97645.58;105435;1321;22611;-76
2021/12/29 09:42:24;;;;;;;140.10;71.90;;;;;;;0.69;83.80;97645.83;105434;1320;22603;-75
2021/12/29 09:44:52;;;;;;;146.10;74.90;;;;;;;0.73;83.56;97644.79;105396;1321;24516;-75
2021/12/29 09:47:20;;;;;;;142.60;74.50;;;;;;;0.72;83.27;97644.50;105441;1321;22733;-76
2021/12/29 09:49:47;;;;;;;144.70;76.60;;;;;;;0.72;83.33;97639.70;105408;1321;22683;-75
2021/12/29 09:52:14;;;;;;;136.80;72.10;;;;;;;0.76;83.18;97640.58;105433;1322;22634;-76
2021/12/29 09:54:41;;;;;;;125.10;64.90;;;;;;;0.79;83.07;97641.50;105385;1321;22659;-76
2021/12/29 09:57:08;;;;;;;117.00;61.30;;;;;;;0.83;83.37;97646.46;105433;1321;22703;-78
2021/12/29 09:59:35;;;;;;;135.70;68.70;;;;;;;0.83;83.41;97646.61;105400;1321;22711;-77
2021/12/29 10:02:03;;;;;;;163.90;77.70;;;;;;;0.85;83.53;97646.38;105461;1317;22596;-77
2021/12/29 10:04:34;;;;;;;189.70;89.80;;;;;;;0.87;83.39;97648.88;105455;1321;22592;-81
2021/12/29 10:07:15;;;;;;;156.20;78.30;;;;;;;0.90;83.41;97648.35;105422;1315;22854;-75
2021/12/29 10:09:42;;;;;;;158.00;80.90;;;;;;;0.91;83.07;97650.02;105381;1322;23208;-75
2021/12/29 10:12:17;;;;;;;134.50;71.40;;;;;;;0.96;83.01;97648.98;105411;1321;25287;-76
2021/12/29 10:14:53;;;;;;;112.30;58.60;;;;;;;1.02;83.31;97650.23;105401;1317;23356;-75
2021/12/29 10:17:24;;;;;;;93.30;47.80;;;;;;;1.03;83.53;97652.79;105369;1321;22600;-76
2021/12/29 10:20:03;;;;;;;97.90;47.40;;;;;;;1.05;83.66;97648.10;105376;1321;22654;-75
2021/12/29 10:22:31;;;;;;;91.70;49.80;;;;;;;1.10;83.59;97649.21;105431;1321;22649;-77
2021/12/29 10:25:08;;;;;;;94.20;46.90;;;;;;;1.17;83.44;97649.80;105434;1322;22581;-76
2021/12/29 10:27:35;;;;;;;95.10;45.30;;;;;;;1.21;83.16;97649.80;105421;1321;22685;-79
2021/12/29 10:30:24;;;;;;;96.70;47.60;;;;;;;1.26;83.17;97651.28;105418;1320;22675;-75
2021/12/29 10:32:54;;;;;;;105.70;48.40;;;;;;;1.30;83.11;97649.73;105680;1319;22651;-76
2021/12/29 10:35:33;;;;;;;108.10;54.90;;;;;;;1.35;83.75;97651.75;105431;1320;22591;-75
2021/12/29 10:38:15;;;;;;;200.90;93.50;;;;;;;1.38;83.63;97653.31;105445;1321;24107;-76
2021/12/29 10:40:42;;;;;;;122.30;60.40;;;;;;;1.39;83.41;97662.02;105402;1322;22594;-76
2021/12/29 10:43:09;;;;;;;126.80;61.30;;;;;;;1.41;83.45;97664.02;105414;1321;24289;-75
2021/12/29 10:45:41;;;;;;;136.80;68.40;;;;;;;1.44;82.97;97665.56;105387;1317;22723;-75
2021/12/29 10:48:20;;;;;;;165.10;80.20;;;;;;;1.49;82.95;97665.71;105439;1321;22583;-75
2021/12/29 10:51:09;;;;;;;87.60;45.60;;;;;;;1.51;83.15;97666.50;105395;1321;24276;-76
2021/12/29 10:53:39;;;;;;;101.40;49.90;;;;;;;1.52;83.40;97663.36;105455;1320;23394;-75
2021/12/29 10:56:06;;;;;;;136.60;58.70;;;;;;;1.53;83.42;97660.37;105424;1320;22725;-77
2021/12/29 10:58:35;;;;;;;158.60;63.70;;;;;;;1.55;83.39;97659.12;105478;1321;22652;-75
2021/12/29 11:01:11;;;;;;;195.90;67.00;;;;;;;1.54;83.15;97658.80;105440;1320;22651;-80
2021/12/29 11:03:58;;;;;;;149.30;56.60;;;;;;;1.54;83.05;97657.61;105461;1321;22629;-79
2021/12/29 11:06:26;;;;;;;118.40;53.40;;;;;;;1.62;82.98;97656.75;105493;1321;22557;-79
2021/12/29 11:08:58;;;;;;;118.10;51.60;;;;;;;1.71;83.20;97658.74;105463;1321;22541;-79
2021/12/29 11:11:37;;;;;;;178.60;69.90;;;;;;;1.76;83.25;97656.62;105455;1321;22585;-80
2021/12/29 11:14:21;;;;;;;110.60;49.80;;;;;;;1.80;83.32;97654.88;105476;1320;22585;-76
2021/12/29 11:17:00;;;;;;;112.90;51.40;;;;;;;1.83;83.23;97650.97;105396;1322;22593;-76
2021/12/29 11:19:27;;;;;;;134.30;54.10;;;;;;;1.89;83.16;97656.52;105440;1321;23442;-76